Gamlingay, United Kingdom
Current Conditions -  °F | °C
As of 7:50 PM on Wednesday 17 Dec 2014 (Local Time) from EGSC Reporting Station
Overcast Overcast  
Wind Chill: 12°   Ceiling: 1000
Heat Index: 12°   Visibility: 6mi
Dew Point: 10°   Wind: 13mph
Humidity: 88%   Direction: 210°SSW
Pressure: 29.74"   Gusts: NA
Location:  52.16°N, 0.19°W
Report Text: EGSC 171950Z 21011KT 180V240 9999 OVC010 12/10 Q1007
Loading
Personal Weather Stations






























Interactive Weather Map New forecast layout! Learn more

10-Day Weather Forecast

Advertisements
Track Severe Weather on mobile